Time;durP1;ratioP1;P1;durP2;ratioP2;P2;SDS_P1;SDS_P2;PMS_P1;PMS_P2;Temp;Humidity;BMP_temperature;BMP_pressure;BME280_temperature;BME280_humidity;BME280_pressure;Samples;Min_cycle;Max_cycle;Signal;HPM_P1;HPM_P2
2023/06/19 00:01:10;;;;;;;4.20;2.70;;;24.80;86.10;;;;;;5034750;28;20029;-67
2023/06/19 00:03:35;;;;;;;3.40;2.45;;;24.70;86.10;;;;;;5034451;28;20025;-66
2023/06/19 00:06:01;;;;;;;3.42;2.40;;;24.70;86.10;;;;;;5034437;28;20027;-68
2023/06/19 00:08:26;;;;;;;4.38;2.70;;;24.70;86.30;;;;;;5034513;28;20092;-66
2023/06/19 00:10:52;;;;;;;4.40;2.72;;;24.70;86.60;;;;;;5034516;28;20478;-66
2023/06/19 00:13:18;;;;;;;4.38;2.30;;;24.70;86.70;;;;;;5033618;28;20478;-65
2023/06/19 00:15:44;;;;;;;3.40;2.70;;;24.70;86.90;;;;;;5034411;28;20036;-66
2023/06/19 00:18:10;;;;;;;5.25;2.60;;;24.60;87.10;;;;;;5034121;28;20017;-65
2023/06/19 00:20:36;;;;;;;4.38;3.00;;;24.60;87.30;;;;;;5016934;28;20374;-66
2023/06/19 00:23:01;;;;;;;4.50;2.85;;;24.60;87.50;;;;;;5034161;28;20028;-66
2023/06/19 00:25:27;;;;;;;4.88;2.55;;;24.60;87.70;;;;;;5034325;28;20436;-66
2023/06/19 00:27:52;;;;;;;5.20;2.75;;;24.60;87.90;;;;;;5033766;28;20022;-66
2023/06/19 00:30:18;;;;;;;4.47;2.70;;;24.50;87.80;;;;;;5034127;28;20555;-66
2023/06/19 00:32:46;;;;;;;3.42;2.72;;;24.50;88.10;;;;;;5034128;28;20386;-66
2023/06/19 00:35:17;;;;;;;3.65;2.83;;;24.50;88.20;;;;;;5034070;28;20025;-66
2023/06/19 00:37:44;;;;;;;3.45;2.35;;;24.50;88.40;;;;;;5033945;28;20382;-65
2023/06/19 00:40:25;;;;;;;3.78;2.88;;;24.50;88.40;;;;;;5033809;28;20386;-66
2023/06/19 00:42:51;;;;;;;2.63;2.42;;;24.50;88.70;;;;;;5033615;28;20110;-65
2023/06/19 00:45:16;;;;;;;4.30;2.83;;;24.40;88.50;;;;;;5033857;28;20076;-65
2023/06/19 00:47:42;;;;;;;3.08;2.45;;;24.40;88.70;;;;;;5033820;28;20029;-65
2023/06/19 00:50:08;;;;;;;7.90;2.75;;;24.40;88.90;;;;;;5033711;28;20030;-66
2023/06/19 00:52:34;;;;;;;3.55;2.50;;;24.40;89.10;;;;;;5033953;28;20032;-65
2023/06/19 00:55:00;;;;;;;4.10;2.60;;;24.40;89.30;;;;;;5033740;28;20060;-65
2023/06/19 00:57:25;;;;;;;4.35;2.88;;;24.30;89.30;;;;;;5033208;28;20475;-65
2023/06/19 00:59:52;;;;;;;3.95;2.88;;;24.30;89.40;;;;;;5033474;28;20025;-65
2023/06/19 01:02:23;;;;;;;6.05;3.17;;;24.30;89.70;;;;;;5033656;28;20020;-65
2023/06/19 01:04:51;;;;;;;3.03;2.70;;;24.30;89.80;;;;;;5033196;28;20437;-65
2023/06/19 01:07:25;;;;;;;2.90;2.58;;;24.30;90.00;;;;;;5033446;28;20018;-65
2023/06/19 01:10:04;;;;;;;4.05;3.08;;;24.30;90.00;;;;;;5033251;28;20134;-67
2023/06/19 01:12:48;;;;;;;5.60;3.38;;;24.30;90.20;;;;;;5033186;28;20030;-65
2023/06/19 01:15:14;;;;;;;3.20;2.88;;;24.20;90.20;;;;;;5033161;28;20470;-65
2023/06/19 01:17:40;;;;;;;5.10;2.80;;;24.20;90.20;;;;;;5033416;28;20026;-65
2023/06/19 01:20:10;;;;;;;4.57;3.47;;;24.20;90.30;;;;;;5033105;28;20053;-65
2023/06/19 01:22:36;;;;;;;4.15;3.20;;;24.20;90.40;;;;;;5033227;28;20443;-65
2023/06/19 01:25:04;;;;;;;3.83;2.78;;;24.20;90.40;;;;;;5032321;28;20037;-65
2023/06/19 01:27:30;;;;;;;4.50;2.97;;;24.20;90.50;;;;;;5033071;28;20147;-65
2023/06/19 01:29:56;;;;;;;4.03;2.95;;;24.10;90.50;;;;;;5033198;28;20057;-64
2023/06/19 01:32:40;;;;;;;4.88;3.00;;;24.10;90.60;;;;;;5033130;28;20018;-64
2023/06/19 01:35:09;;;;;;;3.72;3.38;;;24.10;90.80;;;;;;5032987;28;20025;-64
2023/06/19 01:37:37;;;;;;;3.78;3.20;;;24.10;90.80;;;;;;5015430;28;20382;-65
2023/06/19 01:40:05;;;;;;;4.25;2.97;;;24.10;90.80;;;;;;5033171;28;20033;-65
2023/06/19 01:42:32;;;;;;;5.40;3.70;;;24.10;90.90;;;;;;5032807;28;20030;-65
2023/06/19 01:44:58;;;;;;;4.53;3.80;;;24.10;91.00;;;;;;5033017;28;20029;-65
2023/06/19 01:47:23;;;;;;;5.00;3.17;;;24.10;91.00;;;;;;5033099;28;20047;-65
2023/06/19 01:49:49;;;;;;;5.20;3.83;;;24.10;91.10;;;;;;5033005;28;20072;-64
2023/06/19 01:52:15;;;;;;;7.50;3.85;;;24.10;91.10;;;;;;5032983;28;20021;-65
2023/06/19 01:54:40;;;;;;;4.63;3.38;;;24.10;91.20;;;;;;5032705;28;20060;-64
2023/06/19 01:57:06;;;;;;;4.60;3.65;;;24.00;91.20;;;;;;5032977;28;20024;-65
2023/06/19 01:59:32;;;;;;;6.47;4.45;;;24.00;91.30;;;;;;5032847;28;20462;-64
2023/06/19 02:01:57;;;;;;;6.53;4.00;;;24.00;91.40;;;;;;5032945;28;20053;-65
2023/06/19 02:04:23;;;;;;;3.88;3.40;;;24.00;91.40;;;;;;5032762;28;20033;-65
2023/06/19 02:06:48;;;;;;;5.05;3.47;;;24.00;91.40;;;;;;5032781;28;20025;-65
2023/06/19 02:09:14;;;;;;;4.85;3.42;;;24.00;91.40;;;;;;5032267;28;20087;-65
2023/06/19 02:11:39;;;;;;;3.50;3.20;;;24.00;91.50;;;;;;5032696;28;20038;-64
2023/06/19 02:14:05;;;;;;;5.00;3.67;;;23.90;91.60;;;;;;5032736;28;20049;-65
2023/06/19 02:16:30;;;;;;;5.47;3.30;;;24.00;91.60;;;;;;5032702;28;20021;-64
2023/06/19 02:18:56;;;;;;;6.65;3.50;;;24.00;91.60;;;;;;5032799;28;20355;-64
2023/06/19 02:21:22;;;;;;;4.95;3.45;;;23.90;91.60;;;;;;5032721;28;20489;-65
2023/06/19 02:23:48;;;;;;;4.95;3.08;;;23.90;91.70;;;;;;5032448;28;20572;-65
2023/06/19 02:26:13;;;;;;;3.55;3.20;;;24.00;91.70;;;;;;5032593;28;20099;-65
2023/06/19 02:28:39;;;;;;;7.13;3.30;;;23.90;91.70;;;;;;5032780;28;20021;-65
2023/06/19 02:31:04;;;;;;;5.75;3.85;;;23.90;91.70;;;;;;5032640;28;20021;-65
2023/06/19 02:33:30;;;;;;;5.47;3.70;;;23.80;91.60;;;;;;5032568;28;20377;-66
2023/06/19 02:35:58;;;;;;;4.65;4.18;;;23.90;91.70;;;;;;5033180;28;20044;-65
2023/06/19 02:38:25;;;;;;;4.20;3.85;;;23.80;91.50;;;;;;5036163;28;20403;-65
2023/06/19 02:40:51;;;;;;;4.43;4.03;;;23.90;91.50;;;;;;5036306;28;20018;-65
2023/06/19 02:43:16;;;;;;;4.65;4.20;;;23.80;91.40;;;;;;5036194;28;20505;-65
2023/06/19 02:45:42;;;;;;;4.63;4.22;;;23.80;91.40;;;;;;5035872;28;20030;-65
2023/06/19 02:48:08;;;;;;;5.13;4.20;;;23.80;91.30;;;;;;5036002;28;20064;-65
2023/06/19 02:50:34;;;;;;;3.90;3.60;;;23.80;91.20;;;;;;5035949;28;20025;-65
2023/06/19 02:52:59;;;;;;;3.28;2.97;;;23.80;90.90;;;;;;5035647;28;20514;-65
2023/06/19 02:55:25;;;;;;;3.00;2.70;;;23.80;90.70;;;;;;5036170;28;20096;-65
2023/06/19 02:57:51;;;;;;;3.10;2.80;;;23.80;90.60;;;;;;5035790;28;20492;-65
2023/06/19 03:00:17;;;;;;;3.53;2.60;;;23.80;90.50;;;;;;5035874;28;20036;-65
2023/06/19 03:02:44;;;;;;;3.40;2.30;;;23.70;90.30;;;;;;5035718;28;20036;-65
2023/06/19 03:05:14;;;;;;;2.65;2.10;;;23.70;90.30;;;;;;5035816;28;20128;-65
2023/06/19 03:07:40;;;;;;;4.10;1.98;;;23.70;90.20;;;;;;5023951;28;20474;-65
2023/06/19 03:10:06;;;;;;;5.05;2.10;;;23.70;90.10;;;;;;5032508;28;20040;-65
2023/06/19 03:12:31;;;;;;;3.55;2.08;;;23.70;90.10;;;;;;5033480;28;20029;-66
2023/06/19 03:14:57;;;;;;;3.17;2.38;;;23.70;90.00;;;;;;5034992;28;20032;-65
2023/06/19 03:17:22;;;;;;;3.50;2.67;;;23.70;89.80;;;;;;5035121;28;20467;-65
2023/06/19 03:19:48;;;;;;;3.65;2.47;;;23.60;89.80;;;;;;5035554;28;20426;-65
2023/06/19 03:22:13;;;;;;;6.57;3.33;;;23.60;89.80;;;;;;5035118;28;20471;-65
2023/06/19 03:24:39;;;;;;;4.07;2.70;;;23.60;89.80;;;;;;5035384;28;20406;-65
2023/06/19 03:27:05;;;;;;;2.83;2.30;;;23.60;89.80;;;;;;5035281;28;20501;-66
2023/06/19 03:29:30;;;;;;;2.55;2.20;;;23.60;89.60;;;;;;5035269;28;20453;-64
2023/06/19 03:31:56;;;;;;;2.97;2.47;;;23.60;89.60;;;;;;5030912;28;20082;-64
2023/06/19 03:34:21;;;;;;;4.60;2.75;;;23.60;89.60;;;;;;5033088;28;20033;-64
2023/06/19 03:36:47;;;;;;;4.35;2.80;;;23.60;89.50;;;;;;5032001;28;20042;-64
2023/06/19 03:39:13;;;;;;;3.92;2.90;;;23.60;89.40;;;;;;5034980;28;20083;-64
2023/06/19 03:41:39;;;;;;;3.10;2.78;;;23.60;89.30;;;;;;5035079;28;20104;-65
2023/06/19 03:44:04;;;;;;;5.13;2.65;;;23.60;89.40;;;;;;5034716;28;20624;-64
2023/06/19 03:46:30;;;;;;;3.90;2.60;;;23.60;89.40;;;;;;5035104;28;20032;-64
2023/06/19 03:48:55;;;;;;;5.72;3.00;;;23.50;89.40;;;;;;5033944;28;20025;-72
2023/06/19 03:51:21;;;;;;;3.45;3.15;;;23.50;89.30;;;;;;5033855;28;20036;-64
2023/06/19 03:53:46;;;;;;;4.50;3.22;;;23.50;89.30;;;;;;5033529;28;20478;-65
2023/06/19 03:56:12;;;;;;;5.03;4.03;;;23.50;89.30;;;;;;5032696;28;20055;-64
2023/06/19 03:58:38;;;;;;;5.10;3.55;;;23.40;89.10;;;;;;5033612;28;20025;-64
2023/06/19 04:01:05;;;;;;;4.35;3.95;;;23.40;89.20;;;;;;5033527;28;20025;-64
2023/06/19 04:03:30;;;;;;;4.22;3.83;;;23.50;89.30;;;;;;5034701;28;20033;-64
2023/06/19 04:05:56;;;;;;;5.65;4.82;;;23.40;89.60;;;;;;5034112;28;20038;-65
2023/06/19 04:08:22;;;;;;;5.43;4.93;;;23.40;89.80;;;;;;5031960;28;20378;-64
2023/06/19 04:10:47;;;;;;;6.18;5.57;;;23.40;89.70;;;;;;5034504;28;20459;-64
2023/06/19 04:13:13;;;;;;;6.70;5.63;;;23.40;89.80;;;;;;5029782;28;20491;-64
2023/06/19 04:15:39;;;;;;;8.63;6.20;;;23.40;89.80;;;;;;5014184;28;20041;-69
2023/06/19 04:18:04;;;;;;;6.70;5.97;;;23.40;89.70;;;;;;5014478;28;20016;-64
2023/06/19 04:20:30;;;;;;;7.40;6.70;;;23.40;89.60;;;;;;5014298;28;20022;-64
2023/06/19 04:22:55;;;;;;;7.50;6.45;;;23.30;89.40;;;;;;5014501;28;20410;-64
2023/06/19 04:25:21;;;;;;;7.25;6.35;;;23.30;89.60;;;;;;5014167;28;20546;-64
2023/06/19 04:27:46;;;;;;;8.02;7.22;;;23.30;89.40;;;;;;5014266;28;20495;-65
2023/06/19 04:30:12;;;;;;;8.10;7.30;;;23.30;89.30;;;;;;5014285;28;20076;-65
2023/06/19 04:32:40;;;;;;;7.90;7.20;;;23.30;89.30;;;;;;5014387;28;20097;-65
2023/06/19 04:35:07;;;;;;;10.50;8.32;;;23.30;89.20;;;;;;5013838;28;20029;-65
2023/06/19 04:37:32;;;;;;;8.82;7.22;;;23.30;89.50;;;;;;5014233;28;20018;-65
2023/06/19 04:39:58;;;;;;;8.48;7.65;;;23.20;88.90;;;;;;5014063;28;20112;-65
2023/06/19 04:42:26;;;;;;;10.38;7.97;;;23.20;89.00;;;;;;5014250;28;20034;-65
2023/06/19 04:44:51;;;;;;;8.68;7.88;;;23.20;89.10;;;;;;5013868;28;20391;-72
2023/06/19 04:47:19;;;;;;;8.38;7.63;;;23.20;89.10;;;;;;5014195;28;20018;-65
2023/06/19 04:49:45;;;;;;;9.13;7.88;;;23.20;89.10;;;;;;5013685;28;20549;-65
2023/06/19 04:52:11;;;;;;;9.57;8.38;;;23.20;88.90;;;;;;5013995;28;20018;-65
2023/06/19 04:54:36;;;;;;;9.70;8.35;;;23.20;88.90;;;;;;5013776;28;20080;-65
2023/06/19 04:57:02;;;;;;;10.77;9.25;;;23.10;88.80;;;;;;5013991;28;20021;-65
2023/06/19 04:59:30;;;;;;;9.93;8.93;;;23.20;89.00;;;;;;5013585;28;20025;-64
2023/06/19 05:01:56;;;;;;;10.18;8.35;;;23.10;89.00;;;;;;5028884;28;20022;-65
2023/06/19 05:04:24;;;;;;;10.45;9.10;;;23.10;89.00;;;;;;5033119;28;20022;-65
2023/06/19 05:06:50;;;;;;;10.88;9.13;;;23.10;89.00;;;;;;5033520;28;20033;-65
2023/06/19 05:09:16;;;;;;;11.50;9.43;;;23.10;88.80;;;;;;5033106;28;20463;-66
2023/06/19 05:11:42;;;;;;;10.85;9.88;;;23.10;88.90;;;;;;5033381;28;20072;-65
2023/06/19 05:14:07;;;;;;;11.45;9.07;;;23.10;88.90;;;;;;5033219;28;20463;-65
2023/06/19 05:16:36;;;;;;;11.95;9.50;;;23.10;89.00;;;;;;5033497;28;20068;-66
2023/06/19 05:19:01;;;;;;;16.23;11.23;;;23.00;89.00;;;;;;5033084;28;20029;-68
2023/06/19 05:21:27;;;;;;;15.52;7.40;;;23.10;88.50;;;;;;5026182;28;20014;-67
2023/06/19 05:23:52;;;;;;;11.27;9.45;;;23.10;89.00;;;;;;5031239;28;20487;-67
2023/06/19 05:26:19;;;;;;;9.13;8.23;;;23.10;88.70;;;;;;5023454;28;20470;-69
2023/06/19 05:28:44;;;;;;;12.15;10.80;;;23.10;88.60;;;;;;5031066;28;20517;-68
2023/06/19 05:31:10;;;;;;;12.70;10.65;;;23.10;88.70;;;;;;5031905;28;20045;-68
2023/06/19 05:33:35;;;;;;;13.00;10.88;;;23.20;88.70;;;;;;5027431;28;20026;-68
2023/06/19 05:36:01;;;;;;;13.57;10.48;;;23.20;88.50;;;;;;5025084;28;20692;-68
2023/06/19 05:38:30;;;;;;;14.65;11.98;;;23.20;88.50;;;;;;5007396;28;20116;-68
2023/06/19 05:40:56;;;;;;;12.48;10.55;;;23.20;88.50;;;;;;5026141;28;20026;-68
2023/06/19 05:43:22;;;;;;;13.68;11.68;;;23.20;88.60;;;;;;5026638;28;20099;-68
2023/06/19 05:45:48;;;;;;;12.82;11.52;;;23.20;88.60;;;;;;5028233;28;20040;-67
2023/06/19 05:48:13;;;;;;;14.68;12.05;;;23.20;88.70;;;;;;5027120;28;20026;-68
2023/06/19 05:50:39;;;;;;;14.13;12.57;;;23.20;88.60;;;;;;5028748;28;20028;-67
2023/06/19 05:53:05;;;;;;;15.02;13.38;;;23.20;88.90;;;;;;5029049;28;20036;-66
2023/06/19 05:55:31;;;;;;;16.80;13.82;;;23.20;88.50;;;;;;5025190;28;20087;-67
2023/06/19 05:57:56;;;;;;;15.60;14.00;;;23.30;88.40;;;;;;5032567;28;20729;-67
2023/06/19 06:00:22;;;;;;;14.30;12.95;;;23.30;88.10;;;;;;5029135;28;20034;-69
2023/06/19 06:02:48;;;;;;;13.23;11.98;;;23.30;88.20;;;;;;5027158;28;20026;-71
2023/06/19 06:05:14;;;;;;;17.77;14.00;;;23.30;88.10;;;;;;5026487;28;20041;-65
2023/06/19 06:07:39;;;;;;;15.25;13.35;;;23.30;87.30;;;;;;5026493;28;20030;-66
2023/06/19 06:10:06;;;;;;;15.32;13.82;;;23.40;87.10;;;;;;5029223;28;20034;-68
2023/06/19 06:12:34;;;;;;;14.73;12.93;;;23.40;87.30;;;;;;5031182;28;20049;-69
2023/06/19 06:15:04;;;;;;;14.32;12.93;;;23.40;87.70;;;;;;5034965;28;20112;-75
2023/06/19 06:17:30;;;;;;;10.60;9.27;;;23.40;87.70;;;;;;5032399;28;20021;-75
2023/06/19 06:19:55;;;;;;;11.50;9.27;;;23.40;88.10;;;;;;5033627;28;20029;-71
2023/06/19 06:22:21;;;;;;;10.25;8.50;;;23.40;88.30;;;;;;5034957;28;20365;-68
2023/06/19 06:24:47;;;;;;;10.63;8.95;;;23.40;88.10;;;;;;5035282;28;20368;-69
2023/06/19 06:27:13;;;;;;;10.13;9.07;;;23.50;88.20;;;;;;5032339;28;20067;-68
2023/06/19 06:29:39;;;;;;;15.68;11.98;;;23.50;88.20;;;;;;5035166;28;20025;-70
2023/06/19 06:32:09;;;;;;;13.20;11.15;;;23.60;88.00;;;;;;5034772;28;20091;-70
2023/06/19 06:34:34;;;;;;;11.35;10.25;;;23.60;87.80;;;;;;5032314;28;20069;-69
2023/06/19 06:37:00;;;;;;;12.23;9.57;;;23.60;87.40;;;;;;5035011;28;20505;-67
2023/06/19 06:39:26;;;;;;;12.05;9.32;;;23.60;87.20;;;;;;5035873;28;20036;-65
2023/06/19 06:41:52;;;;;;;11.07;9.98;;;23.60;87.00;;;;;;5036058;28;20108;-67
2023/06/19 06:44:17;;;;;;;10.98;9.88;;;23.70;86.80;;;;;;5034937;28;20025;-71
2023/06/19 06:46:43;;;;;;;11.63;10.23;;;23.70;86.50;;;;;;5035201;28;20033;-71
2023/06/19 06:49:08;;;;;;;10.57;9.48;;;23.70;86.20;;;;;;5034722;28;20028;-66
2023/06/19 06:51:34;;;;;;;11.32;10.13;;;23.70;86.20;;;;;;5034970;28;20705;-72
2023/06/19 06:53:59;;;;;;;11.82;10.57;;;23.80;85.90;;;;;;5035376;28;20033;-71
2023/06/19 06:56:25;;;;;;;12.77;9.57;;;23.80;85.80;;;;;;5035689;28;20109;-67
2023/06/19 06:58:51;;;;;;;11.95;9.57;;;23.80;85.60;;;;;;5035777;28;20061;-69
2023/06/19 07:01:16;;;;;;;11.48;9.45;;;23.90;85.30;;;;;;5031850;28;20438;-70
2023/06/19 07:03:42;;;;;;;11.35;10.25;;;23.90;85.30;;;;;;5029187;28;20517;-67
2023/06/19 07:06:07;;;;;;;15.93;10.55;;;23.90;85.10;;;;;;5034600;28;20045;-70
2023/06/19 07:08:33;;;;;;;11.10;10.00;;;23.90;85.00;;;;;;5034909;28;20022;-67
2023/06/19 07:10:58;;;;;;;11.18;9.48;;;24.00;85.00;;;;;;5017016;28;20513;-66
2023/06/19 07:13:25;;;;;;;12.57;10.70;;;24.00;84.90;;;;;;5035054;28;20470;-67
2023/06/19 07:15:50;;;;;;;12.07;10.88;;;24.00;84.90;;;;;;5034792;28;20032;-70
2023/06/19 07:18:16;;;;;;;10.02;9.05;;;24.00;84.70;;;;;;5017105;28;20478;-67
2023/06/19 07:20:42;;;;;;;10.35;9.07;;;24.00;84.70;;;;;;5023336;28;20104;-69
2023/06/19 07:23:09;;;;;;;10.88;8.55;;;24.00;84.80;;;;;;5021648;28;20108;-68
2023/06/19 07:25:34;;;;;;;11.27;8.15;;;24.00;84.90;;;;;;5034560;28;20104;-71
2023/06/19 07:28:01;;;;;;;11.20;8.00;;;24.10;84.80;;;;;;5033609;28;20034;-69
2023/06/19 07:30:27;;;;;;;11.02;8.85;;;24.10;84.80;;;;;;5033648;28;20025;-71
2023/06/19 07:32:52;;;;;;;9.27;8.23;;;24.10;84.80;;;;;;5034974;28;20021;-70
2023/06/19 07:35:18;;;;;;;11.73;8.18;;;24.10;84.60;;;;;;5034356;28;20037;-70
2023/06/19 07:37:44;;;;;;;10.27;7.80;;;24.10;84.50;;;;;;5033835;28;20017;-68
2023/06/19 07:40:11;;;;;;;13.55;8.27;;;24.20;84.60;;;;;;5034744;28;20036;-68
2023/06/19 07:42:36;;;;;;;9.80;8.80;;;24.20;84.50;;;;;;5034826;28;20045;-69
2023/06/19 07:45:02;;;;;;;9.68;8.48;;;24.20;84.30;;;;;;5034582;28;20487;-71
2023/06/19 07:47:28;;;;;;;9.82;8.30;;;24.20;84.20;;;;;;5033260;28;20021;-70
2023/06/19 07:49:53;;;;;;;12.23;8.52;;;24.20;84.00;;;;;;5033895;28;20072;-74
2023/06/19 07:52:19;;;;;;;10.20;7.95;;;24.20;84.10;;;;;;5034199;28;20041;-76
2023/06/19 07:54:55;;;;;;;9.95;8.32;;;24.30;84.00;;;;;;5034895;28;20025;-67
2023/06/19 07:57:21;;;;;;;9.23;8.05;;;24.30;83.80;;;;;;5014126;28;20076;-67
2023/06/19 07:59:50;;;;;;;13.95;7.60;;;24.30;84.00;;;;;;5024434;28;20029;-68
2023/06/19 08:02:16;;;;;;;9.43;7.00;;;24.30;83.90;;;;;;5033236;28;20474;-69
2023/06/19 08:04:42;;;;;;;10.90;7.20;;;24.30;84.00;;;;;;5029740;28;20033;-72
2023/06/19 08:07:07;;;;;;;11.05;8.60;;;24.30;83.90;;;;;;5018719;28;20474;-72
2023/06/19 08:09:33;;;;;;;9.05;8.15;;;24.30;83.60;;;;;;5025243;28;20040;-72
2023/06/19 08:11:59;;;;;;;10.70;9.57;;;24.40;83.60;;;;;;5029863;28;20028;-70
2023/06/19 08:14:24;;;;;;;11.90;9.38;;;24.40;83.20;;;;;;5030807;28;20087;-76
2023/06/19 08:16:50;;;;;;;10.00;8.95;;;24.40;83.10;;;;;;5004161;28;20056;-71
2023/06/19 08:19:16;;;;;;;11.20;9.73;;;24.40;83.20;;;;;;5024857;28;20032;-66
2023/06/19 08:21:41;;;;;;;9.70;7.90;;;24.40;82.80;;;;;;5033526;28;20091;-66
2023/06/19 08:24:07;;;;;;;9.35;8.45;;;24.40;83.20;;;;;;5032003;28;20057;-69
2023/06/19 08:26:32;;;;;;;12.80;8.07;;;24.40;83.00;;;;;;5030810;28;20026;-67
2023/06/19 08:28:58;;;;;;;10.95;8.80;;;24.40;82.90;;;;;;5020874;28;20061;-71
2023/06/19 08:31:27;;;;;;;11.48;8.00;;;24.40;83.00;;;;;;5031356;28;20026;-71
2023/06/19 08:33:54;;;;;;;10.82;7.50;;;24.50;83.10;;;;;;5011820;28;20360;-70
2023/06/19 08:36:19;;;;;;;8.75;7.72;;;24.50;83.10;;;;;;5024906;28;20032;-68
2023/06/19 08:38:49;;;;;;;10.60;9.48;;;24.50;83.10;;;;;;5028628;28;20034;-69
2023/06/19 08:41:15;;;;;;;10.65;7.90;;;24.50;82.80;;;;;;5023613;28;20116;-74
2023/06/19 08:43:41;;;;;;;11.02;8.68;;;24.50;82.90;;;;;;5012455;28;20018;-73
2023/06/19 08:46:11;;;;;;;9.68;8.13;;;24.60;83.00;;;;;;5013723;28;20062;-68
2023/06/19 08:48:37;;;;;;;9.40;7.82;;;24.60;82.90;;;;;;5013581;28;20241;-67
2023/06/19 08:51:04;;;;;;;11.40;6.57;;;24.60;82.90;;;;;;5030265;28;20110;-70
2023/06/19 08:53:34;;;;;;;10.00;7.45;;;24.60;82.90;;;;;;5032171;28;20038;-68
2023/06/19 08:56:00;;;;;;;14.40;7.25;;;24.60;83.00;;;;;;5031327;28;20026;-69
2023/06/19 08:58:26;;;;;;;9.63;6.93;;;24.60;83.10;;;;;;5032465;28;20032;-69
2023/06/19 09:00:51;;;;;;;12.30;8.15;;;24.70;83.20;;;;;;5014798;28;20026;-67
2023/06/19 09:03:21;;;;;;;13.68;8.48;;;24.60;83.10;;;;;;5030918;28;20029;-68
2023/06/19 09:05:50;;;;;;;10.48;7.45;;;24.60;83.20;;;;;;5028222;28;20429;-70
2023/06/19 09:08:17;;;;;;;11.05;7.78;;;24.70;83.10;;;;;;5028719;28;20422;-68
2023/06/19 09:10:54;;;;;;;10.55;7.40;;;24.70;83.20;;;;;;5026471;28;20036;-70
2023/06/19 09:13:19;;;;;;;9.50;6.95;;;24.70;83.00;;;;;;5029623;28;20037;-71
2023/06/19 09:15:45;;;;;;;9.93;7.90;;;24.70;83.10;;;;;;5022335;28;20041;-70
2023/06/19 09:18:12;;;;;;;7.32;6.63;;;24.80;83.10;;;;;;5026725;28;20068;-69
2023/06/19 09:20:43;;;;;;;7.40;5.78;;;24.80;83.00;;;;;;5021379;28;20024;-71
2023/06/19 09:23:10;;;;;;;11.20;6.30;;;24.80;83.00;;;;;;5024841;28;20013;-71
2023/06/19 09:25:55;;;;;;;10.75;6.63;;;24.80;83.20;;;;;;5024544;28;20312;-68
2023/06/19 09:28:22;;;;;;;9.50;6.32;;;24.80;83.00;;;;;;5026034;28;20108;-68
2023/06/19 09:30:56;;;;;;;9.57;6.75;;;24.90;83.30;;;;;;5030095;28;20014;-67
2023/06/19 09:33:26;;;;;;;9.00;6.60;;;24.80;83.20;;;;;;5026937;28;20087;-70
2023/06/19 09:35:55;;;;;;;8.02;6.63;;;24.90;83.20;;;;;;5024745;28;20022;-69
2023/06/19 09:38:26;;;;;;;12.15;6.38;;;24.90;83.20;;;;;;5027857;28;20021;-71
2023/06/19 09:40:52;;;;;;;7.45;6.50;;;24.90;83.20;;;;;;5027582;28;20029;-69
2023/06/19 09:43:38;;;;;;;12.95;6.05;;;24.90;83.20;;;;;;5019459;28;20425;-69
2023/06/19 09:46:05;;;;;;;12.75;5.55;;;24.90;83.00;;;;;;5021027;28;20041;-68
2023/06/19 09:48:34;;;;;;;12.30;7.22;;;25.00;83.30;;;;;;5028154;28;20045;-69
2023/06/19 09:51:16;;;;;;;8.85;6.20;;;25.00;83.10;;;;;;5032952;28;20018;-69
2023/06/19 09:53:44;;;;;;;;;;;25.00;83.00;;;;;;5028898;28;20033;-68
2023/06/19 09:56:10;;;;;;;10.27;5.78;;;25.00;82.60;;;;;;5034950;28;20408;-68
2023/06/19 09:58:36;;;;;;;12.88;5.95;;;25.00;83.00;;;;;;5033437;28;20033;-68
2023/06/19 10:01:04;;;;;;;11.82;6.25;;;25.10;83.10;;;;;;5034546;28;20029;-68
2023/06/19 10:03:31;;;;;;;8.82;5.90;;;25.10;83.00;;;;;;5033894;28;20474;-68
2023/06/19 10:05:59;;;;;;;8.63;6.28;;;25.10;82.80;;;;;;5034450;28;20037;-68
2023/06/19 10:08:38;;;;;;;8.15;6.38;;;25.10;82.50;;;;;;5028915;28;20556;-68
2023/06/19 10:11:04;;;;;;;10.88;6.63;;;25.10;82.50;;;;;;5028324;28;20441;-69
2023/06/19 10:13:36;;;;;;;8.23;6.32;;;25.10;82.60;;;;;;5032947;28;20079;-69
2023/06/19 10:16:02;;;;;;;13.82;5.88;;;25.10;82.50;;;;;;5017309;28;20029;-68
2023/06/19 10:18:28;;;;;;;7.78;5.80;;;25.10;82.40;;;;;;5035880;28;20017;-68
2023/06/19 10:20:56;;;;;;;6.95;5.50;;;25.20;82.40;;;;;;5035633;28;20518;-67
2023/06/19 10:23:24;;;;;;;8.02;5.53;;;25.20;82.50;;;;;;5019194;28;20119;-67
2023/06/19 10:25:57;;;;;;;7.18;6.30;;;25.20;82.20;;;;;;5029669;28;20037;-66
2023/06/19 10:28:24;;;;;;;7.35;5.72;;;25.30;82.00;;;;;;5031282;28;20034;-67
2023/06/19 10:31:07;;;;;;;9.90;6.22;;;25.30;82.20;;;;;;5034217;28;20021;-70
2023/06/19 10:33:34;;;;;;;12.57;7.63;;;25.30;84.20;;;;;;5030067;28;20084;-68
2023/06/19 10:36:02;;;;;;;12.35;11.00;;;25.30;85.60;;;;;;5024655;28;20029;-69
2023/06/19 10:38:29;;;;;;;9.35;8.13;;;25.30;89.90;;;;;;5023851;28;20033;-69
2023/06/19 10:40:56;;;;;;;7.60;6.50;;;25.40;89.10;;;;;;5029293;28;20033;-69
2023/06/19 10:43:27;;;;;;;8.15;6.55;;;25.40;85.60;;;;;;5033898;28;20021;-69
2023/06/19 10:45:53;;;;;;;8.82;6.13;;;25.40;84.70;;;;;;5023712;28;20044;-70
2023/06/19 10:48:26;;;;;;;8.10;7.35;;;25.40;85.10;;;;;;5027773;28;20017;-69
2023/06/19 10:50:52;;;;;;;8.43;6.75;;;25.50;87.70;;;;;;5016740;28;20033;-68
2023/06/19 10:53:29;;;;;;;8.95;6.85;;;25.50;87.70;;;;;;5027171;28;20037;-70
2023/06/19 10:55:56;;;;;;;7.57;6.28;;;25.50;87.30;;;;;;5031333;28;20025;-69
2023/06/19 10:58:23;;;;;;;7.28;6.22;;;25.50;86.60;;;;;;5033054;28;20378;-69
2023/06/19 11:00:48;;;;;;;7.85;6.65;;;25.50;85.90;;;;;;5012334;28;20029;-68
2023/06/19 11:03:14;;;;;;;8.73;5.78;;;25.50;85.90;;;;;;5030001;28;20036;-69
2023/06/19 11:05:44;;;;;;;7.85;5.65;;;25.50;84.90;;;;;;5023450;28;20045;-70
2023/06/19 11:08:10;;;;;;;6.15;5.38;;;25.60;86.10;;;;;;5031775;28;20131;-71
2023/06/19 11:10:35;;;;;;;6.25;5.30;;;25.50;83.90;;;;;;5027479;28;20041;-68
2023/06/19 11:13:01;;;;;;;8.68;5.82;;;25.50;85.10;;;;;;5030205;28;20433;-71
2023/06/19 11:15:34;;;;;;;7.93;5.70;;;25.60;86.00;;;;;;5030166;28;20386;-69
2023/06/19 11:18:01;;;;;;;8.27;4.60;;;25.60;85.80;;;;;;5030399;28;20313;-70
2023/06/19 11:20:27;;;;;;;8.15;5.55;;;25.60;85.80;;;;;;5031055;28;20021;-69
2023/06/19 11:22:58;;;;;;;8.13;5.32;;;25.60;83.90;;;;;;5016307;28;20033;-70
2023/06/19 11:25:34;;;;;;;22.48;7.40;;;25.60;85.30;;;;;;5028183;28;20036;-69
2023/06/19 11:28:00;;;;;;;10.60;5.15;;;25.70;83.40;;;;;;5023281;28;20025;-69
2023/06/19 11:30:33;;;;;;;11.15;5.35;;;25.60;85.80;;;;;;5027187;28;20030;-69
2023/06/19 11:33:00;;;;;;;8.25;4.93;;;25.60;85.50;;;;;;5030835;28;20066;-69
2023/06/19 11:35:34;;;;;;;8.82;5.32;;;25.60;85.20;;;;;;5025770;28;20052;-69
2023/06/19 11:37:59;;;;;;;7.50;4.63;;;25.70;84.40;;;;;;5030384;28;20022;-69
2023/06/19 11:40:25;;;;;;;7.30;4.40;;;25.70;84.60;;;;;;5014569;28;21756;-67
2023/06/19 11:42:54;;;;;;;8.32;5.20;;;25.70;84.80;;;;;;5031391;28;20487;-69
2023/06/19 11:45:21;;;;;;;7.90;4.85;;;25.70;83.90;;;;;;5033399;28;20036;-67
2023/06/19 11:47:48;;;;;;;7.55;4.80;;;25.70;83.80;;;;;;5033243;28;20040;-69
2023/06/19 11:50:19;;;;;;;5.85;4.38;;;25.70;84.10;;;;;;5032944;28;20104;-68
2023/06/19 11:52:46;;;;;;;7.47;4.80;;;25.70;83.40;;;;;;5030985;28;20025;-69
2023/06/19 11:55:15;;;;;;;8.25;4.38;;;25.80;82.50;;;;;;5033565;28;20030;-70
2023/06/19 11:57:41;;;;;;;5.72;4.57;;;25.80;81.70;;;;;;5026708;28;20406;-69
2023/06/19 12:00:16;;;;;;;7.80;5.03;;;25.80;81.20;;;;;;5033452;28;20021;-70
2023/06/19 12:02:44;;;;;;;8.60;4.80;;;25.80;82.70;;;;;;5032651;28;20078;-69
2023/06/19 12:05:10;;;;;;;10.82;5.15;;;25.80;82.20;;;;;;5026293;28;20060;-70
2023/06/19 12:07:36;;;;;;;10.00;4.18;;;25.80;82.30;;;;;;5030123;28;20032;-71
2023/06/19 12:10:03;;;;;;;6.75;4.80;;;25.80;82.10;;;;;;5012788;28;20120;-70
2023/06/19 12:12:29;;;;;;;6.50;4.47;;;25.80;81.90;;;;;;5033337;28;20375;-71
2023/06/19 12:14:56;;;;;;;6.53;4.68;;;25.80;81.50;;;;;;5025771;28;20348;-70
2023/06/19 12:17:22;;;;;;;8.20;4.93;;;25.90;81.30;;;;;;5027213;28;20048;-70
2023/06/19 12:19:48;;;;;;;5.85;4.60;;;25.90;80.90;;;;;;5023837;28;20030;-69
2023/06/19 12:22:14;;;;;;;8.40;4.30;;;25.90;80.90;;;;;;5031146;28;20060;-68
2023/06/19 12:24:39;;;;;;;5.65;5.00;;;25.90;79.90;;;;;;5030037;28;20083;-67
2023/06/19 12:27:05;;;;;;;7.03;5.30;;;25.90;80.70;;;;;;5021865;28;20100;-69
2023/06/19 12:29:31;;;;;;;9.13;5.63;;;25.90;80.10;;;;;;5020012;28;20054;-69
2023/06/19 12:32:02;;;;;;;6.90;5.97;;;25.90;79.10;;;;;;5024130;28;20124;-69
2023/06/19 12:34:28;;;;;;;8.60;6.10;;;25.90;77.90;;;;;;5028877;28;20029;-70
2023/06/19 12:36:54;;;;;;;7.43;4.72;;;25.90;77.90;;;;;;5029341;28;20242;-70
2023/06/19 12:39:20;;;;;;;7.35;4.85;;;25.90;79.50;;;;;;5025181;28;20506;-71
2023/06/19 12:41:46;;;;;;;8.95;5.20;;;25.90;79.80;;;;;;5025493;28;20040;-71